Time;durP1;ratioP1;P1;durP2;ratioP2;P2;SDS_P1;SDS_P2;PMS_P1;PMS_P2;Temp;Humidity;BMP_temperature;BMP_pressure;BME280_temperature;BME280_humidity;BME280_pressure;Samples;Min_cycle;Max_cycle;Signal;HPM_P1;HPM_P2
2021/12/08 00:02:15;;;;;;;517.13;475.13;;;5.80;99.90;;;;;;5060222;28;20198;-80
2021/12/08 00:04:42;;;;;;;513.07;471.70;;;5.90;99.90;;;;;;5059080;28;20204;-81
2021/12/08 00:07:09;;;;;;;510.67;469.47;;;5.90;99.90;;;;;;5060095;28;20275;-81
2021/12/08 00:10:01;;;;;;;438.30;403.70;;;6.00;99.90;;;;;;5058520;28;20280;-80
2021/12/08 00:15:15;;;;;;;430.63;396.90;;;6.10;99.90;;;;;;5063354;28;20268;-81
2021/12/08 00:17:41;;;;;;;426.67;393.10;;;6.00;99.90;;;;;;5066071;28;20659;-81
2021/12/08 00:20:08;;;;;;;417.17;384.77;;;6.00;99.90;;;;;;5063329;28;20217;-80
2021/12/08 00:22:34;;;;;;;419.03;386.30;;;6.10;99.90;;;;;;5052160;28;20204;-81
2021/12/08 00:25:00;;;;;;;413.93;382.00;;;6.00;99.90;;;;;;5052154;28;20185;-81
2021/12/08 00:27:25;;;;;;;408.80;377.17;;;6.10;99.90;;;;;;5052019;28;20198;-81
2021/12/08 00:29:51;;;;;;;407.10;375.87;;;6.10;99.90;;;;;;5053671;28;20193;-81
2021/12/08 00:32:21;;;;;;;396.27;365.70;;;6.10;99.90;;;;;;5036618;28;20205;-81
2021/12/08 00:34:47;;;;;;;386.70;357.13;;;6.20;99.90;;;;;;5050293;28;20210;-80
2021/12/08 00:37:12;;;;;;;508.57;465.83;;;6.30;99.90;;;;;;5066385;28;20781;-80
2021/12/08 00:39:38;;;;;;;410.30;377.30;;;6.30;99.90;;;;;;5053456;28;20281;-80
2021/12/08 00:42:04;;;;;;;405.40;372.80;;;6.40;99.90;;;;;;5037135;28;20209;-80
2021/12/08 00:44:30;;;;;;;403.77;371.40;;;6.40;99.90;;;;;;5069553;28;20355;-81
2021/12/08 00:46:55;;;;;;;404.57;372.40;;;6.40;99.90;;;;;;5036105;28;20220;-80
2021/12/08 00:49:21;;;;;;;399.33;367.90;;;6.50;99.90;;;;;;5035302;28;20568;-79
2021/12/08 00:51:47;;;;;;;395.50;365.13;;;6.50;99.90;;;;;;5064514;28;20188;-80
2021/12/08 00:54:13;;;;;;;391.73;361.93;;;6.50;99.90;;;;;;5051784;28;20174;-80
2021/12/08 00:56:39;;;;;;;395.23;364.53;;;6.50;99.90;;;;;;5035331;28;20249;-80
2021/12/08 00:59:04;;;;;;;403.03;371.27;;;6.50;99.90;;;;;;5067174;28;20986;-81
2021/12/08 01:01:30;;;;;;;404.63;371.93;;;6.50;99.90;;;;;;5049737;28;20285;-79
2021/12/08 01:03:56;;;;;;;409.90;377.40;;;6.50;99.90;;;;;;5061736;28;20258;-80
2021/12/08 01:06:22;;;;;;;412.17;379.40;;;6.40;99.90;;;;;;5049866;28;20209;-80
2021/12/08 01:08:47;;;;;;;412.53;379.93;;;6.40;99.90;;;;;;5063493;28;20284;-80
2021/12/08 01:11:16;;;;;;;412.77;379.60;;;6.40;99.90;;;;;;5050940;28;20261;-80
2021/12/08 01:13:43;;;;;;;407.70;375.33;;;6.40;99.90;;;;;;5061890;28;20193;-79
2021/12/08 01:16:09;;;;;;;406.87;374.67;;;6.30;99.90;;;;;;5066845;28;20186;-81
2021/12/08 01:18:35;;;;;;;406.67;374.23;;;6.30;99.90;;;;;;5059982;28;20189;-81
2021/12/08 01:21:04;;;;;;;406.13;374.33;;;6.40;99.90;;;;;;5062525;28;20199;-79
2021/12/08 01:23:31;;;;;;;399.73;368.23;;;6.40;99.90;;;;;;5048359;28;20249;-80
2021/12/08 01:25:57;;;;;;;399.77;368.43;;;6.40;99.90;;;;;;5065017;28;20228;-80
2021/12/08 01:28:24;;;;;;;398.80;368.27;;;6.40;99.90;;;;;;5032429;28;20211;-82
2021/12/08 01:30:52;;;;;;;395.40;365.43;;;6.40;99.90;;;;;;5061336;28;20240;-80
2021/12/08 01:33:19;;;;;;;397.37;366.77;;;6.40;99.90;;;;;;5061758;28;20655;-80
2021/12/08 01:35:45;;;;;;;390.63;360.90;;;6.40;99.90;;;;;;5067177;28;20209;-80
2021/12/08 01:38:10;;;;;;;394.23;363.67;;;6.40;99.90;;;;;;5059978;28;20293;-79
2021/12/08 01:40:36;;;;;;;390.27;360.07;;;6.40;99.90;;;;;;5033049;28;20285;-81
2021/12/08 01:43:03;;;;;;;388.77;359.10;;;6.50;99.90;;;;;;5060778;28;20639;-81
2021/12/08 01:48:18;;;;;;;397.80;368.57;;;6.50;99.90;;;;;;5061986;28;20201;-78
2021/12/08 01:50:47;;;;;;;400.23;370.40;;;6.50;99.90;;;;;;5059581;28;20194;-81
2021/12/08 01:53:12;;;;;;;382.13;353.40;;;6.60;99.90;;;;;;5062257;28;20257;-79
2021/12/08 01:55:40;;;;;;;386.20;357.27;;;6.60;99.90;;;;;;5060741;28;20281;-79
2021/12/08 01:58:07;;;;;;;384.80;356.30;;;6.60;99.90;;;;;;5049951;28;20225;-80
2021/12/08 02:00:58;;;;;;;431.13;396.37;;;6.60;99.90;;;;;;5060479;28;20197;-79
2021/12/08 02:03:24;;;;;;;493.23;452.03;;;6.50;99.90;;;;;;5059858;28;20576;-79
2021/12/08 02:05:51;;;;;;;562.27;513.63;;;6.50;99.90;;;;;;5048582;28;20220;-80
2021/12/08 02:08:17;;;;;;;562.30;513.63;;;6.40;99.90;;;;;;5061375;28;20289;-79
2021/12/08 02:10:44;;;;;;;556.60;507.83;;;6.40;99.90;;;;;;5049148;28;20288;-79
2021/12/08 02:13:10;;;;;;;554.10;505.70;;;6.40;99.90;;;;;;5050162;28;20219;-80
2021/12/08 02:15:38;;;;;;;557.63;508.07;;;6.40;99.90;;;;;;5081017;28;20197;-80
2021/12/08 02:18:05;;;;;;;555.77;506.80;;;6.40;99.90;;;;;;5060295;28;20322;-79
2021/12/08 02:20:31;;;;;;;558.20;509.07;;;6.30;99.90;;;;;;5064649;28;20555;-80
2021/12/08 02:22:57;;;;;;;554.77;506.00;;;6.40;99.90;;;;;;5073576;28;20190;-80
2021/12/08 02:25:25;;;;;;;569.63;519.83;;;6.30;99.90;;;;;;5060804;28;20238;-80
2021/12/08 02:27:53;;;;;;;560.50;511.47;;;6.30;99.90;;;;;;5080311;28;20185;-80
2021/12/08 02:48:56;;;;;;;543.57;496.63;;;6.20;99.90;;;;;;5064684;28;20263;-80
2021/12/08 02:51:22;;;;;;;416.80;383.93;;;6.20;99.90;;;;;;5048506;28;20577;-80
2021/12/08 02:53:48;;;;;;;416.80;383.93;;;6.20;99.90;;;;;;5048890;28;20190;-79
2021/12/08 02:56:16;;;;;;;411.13;379.33;;;6.30;99.90;;;;;;5061701;28;20194;-80
2021/12/08 02:58:42;;;;;;;412.53;381.03;;;6.30;99.90;;;;;;5061249;28;20203;-80
2021/12/08 03:01:10;;;;;;;404.17;373.23;;;6.30;99.90;;;;;;5063881;28;20193;-81
2021/12/08 03:03:37;;;;;;;394.33;364.70;;;6.30;99.90;;;;;;5048670;28;20196;-80
2021/12/08 03:06:03;;;;;;;394.90;365.80;;;6.30;99.90;;;;;;5049085;28;20209;-81
2021/12/08 03:08:29;;;;;;;394.10;364.87;;;6.30;99.90;;;;;;5064611;28;20189;-80
2021/12/08 03:10:55;;;;;;;390.50;361.37;;;6.30;99.90;;;;;;5059383;28;20294;-79
2021/12/08 03:13:32;;;;;;;387.90;359.33;;;6.30;99.90;;;;;;5060265;28;20186;-80
2021/12/08 03:15:58;;;;;;;388.53;359.87;;;6.20;99.90;;;;;;5059268;28;20195;-81
2021/12/08 03:18:31;;;;;;;386.83;358.60;;;6.20;99.90;;;;;;5032974;28;20220;-81
2021/12/08 03:20:58;;;;;;;389.07;361.10;;;6.20;99.90;;;;;;5050099;28;20276;-80
2021/12/08 03:23:30;;;;;;;386.07;357.50;;;6.10;99.90;;;;;;5062445;28;20276;-80
2021/12/08 03:25:58;;;;;;;384.73;357.00;;;6.10;99.90;;;;;;5050011;28;20238;-80
2021/12/08 03:28:29;;;;;;;391.40;363.20;;;6.10;99.90;;;;;;5030790;28;20182;-80
2021/12/08 03:31:09;;;;;;;383.57;356.07;;;6.10;99.90;;;;;;5064428;28;20178;-81
2021/12/08 03:33:35;;;;;;;377.20;350.77;;;6.10;99.90;;;;;;5048000;28;20523;-80
2021/12/08 03:36:01;;;;;;;381.93;354.77;;;6.10;99.90;;;;;;5046805;28;20267;-80
2021/12/08 03:38:28;;;;;;;376.20;350.10;;;6.00;99.90;;;;;;5058335;28;20288;-79
2021/12/08 03:40:56;;;;;;;371.27;344.97;;;6.00;99.90;;;;;;5047570;28;20193;-79
2021/12/08 03:43:22;;;;;;;371.37;345.53;;;6.00;99.90;;;;;;5078899;28;20261;-80
2021/12/08 03:45:50;;;;;;;369.70;344.07;;;6.00;99.90;;;;;;5041896;28;20296;-78
2021/12/08 03:48:23;;;;;;;364.33;339.57;;;5.90;99.90;;;;;;5059276;28;20186;-79
2021/12/08 03:50:49;;;;;;;362.17;337.47;;;6.00;99.90;;;;;;5059572;28;20178;-79
2021/12/08 03:53:16;;;;;;;361.43;337.17;;;5.90;99.90;;;;;;5057205;28;20193;-79
2021/12/08 03:55:44;;;;;;;360.63;336.23;;;5.90;99.90;;;;;;5046822;28;20182;-80
2021/12/08 03:58:10;;;;;;;358.20;334.10;;;5.80;99.90;;;;;;5058650;28;20320;-80
2021/12/08 04:00:37;;;;;;;357.47;333.60;;;5.80;99.90;;;;;;5059653;28;20236;-79
2021/12/08 04:03:06;;;;;;;352.03;328.03;;;5.80;99.90;;;;;;5060463;28;20201;-79
2021/12/08 04:05:43;;;;;;;354.70;330.30;;;5.80;99.90;;;;;;5063177;28;20217;-81
2021/12/08 04:08:16;;;;;;;342.53;319.23;;;6.00;99.90;;;;;;5036270;28;20289;-81
2021/12/08 04:10:49;;;;;;;335.57;313.43;;;5.90;99.90;;;;;;5048109;28;20619;-80
2021/12/08 04:13:21;;;;;;;328.30;307.03;;;5.90;99.90;;;;;;5058991;28;20182;-80
2021/12/08 04:15:47;;;;;;;329.73;308.23;;;5.90;99.90;;;;;;5060721;28;20191;-79
2021/12/08 04:18:13;;;;;;;317.50;296.80;;;5.80;99.90;;;;;;5060264;28;20193;-79
2021/12/08 04:20:47;;;;;;;312.87;293.27;;;5.80;99.90;;;;;;5059133;28;20293;-81
2021/12/08 04:23:15;;;;;;;303.40;284.10;;;5.80;99.90;;;;;;5064416;28;20185;-79
2021/12/08 04:25:47;;;;;;;292.93;274.50;;;5.80;99.90;;;;;;5058353;28;20205;-79
2021/12/08 04:28:19;;;;;;;287.80;270.07;;;5.70;99.90;;;;;;5065771;28;20189;-80
2021/12/08 04:31:10;;;;;;;280.50;263.33;;;5.70;99.90;;;;;;5074871;28;20685;-79
2021/12/08 04:33:37;;;;;;;278.53;261.67;;;5.70;99.90;;;;;;5044979;28;20198;-80
2021/12/08 04:36:06;;;;;;;267.07;251.07;;;5.70;99.90;;;;;;5076208;28;20182;-81
2021/12/08 04:38:38;;;;;;;257.27;241.80;;;5.70;99.90;;;;;;5059089;28;20278;-79
2021/12/08 04:41:10;;;;;;;255.80;240.50;;;5.70;99.90;;;;;;5062988;28;20691;-81
2021/12/08 05:10:04;;;;;;;142.57;134.40;;;5.50;99.90;;;;;;5068382;28;20659;-81
2021/12/08 05:12:33;;;;;;;142.17;133.93;;;5.50;99.90;;;;;;5061601;28;20181;-79
2021/12/08 05:15:10;;;;;;;138.23;130.17;;;5.50;99.90;;;;;;5067617;28;20273;-80
2021/12/08 05:17:45;;;;;;;134.40;126.80;;;5.50;99.90;;;;;;5068231;28;20197;-81
2021/12/08 05:20:17;;;;;;;137.77;129.57;;;5.50;99.90;;;;;;5067694;28;20624;-80
2021/12/08 05:22:51;;;;;;;134.67;126.90;;;5.50;99.90;;;;;;5063886;28;21004;-79
2021/12/08 05:25:21;;;;;;;131.67;124.17;;;5.50;99.90;;;;;;5060762;28;20208;-79
2021/12/08 05:27:49;;;;;;;132.53;124.83;;;5.50;99.90;;;;;;5085361;28;20599;-80
2021/12/08 05:30:29;;;;;;;126.03;119.13;;;5.50;99.90;;;;;;5068544;28;20173;-81
2021/12/08 05:32:56;;;;;;;121.97;115.03;;;5.50;99.90;;;;;;5063188;28;20204;-81
2021/12/08 05:35:23;;;;;;;122.23;114.80;;;5.50;99.90;;;;;;5067361;28;20265;-79
2021/12/08 05:37:50;;;;;;;124.20;117.07;;;5.50;99.90;;;;;;5062955;28;20574;-80
2021/12/08 05:40:23;;;;;;;125.03;118.13;;;5.50;99.90;;;;;;5052620;28;20205;-81
2021/12/08 05:42:49;;;;;;;120.60;114.00;;;5.50;99.90;;;;;;5063493;28;20712;-82
2021/12/08 05:45:18;;;;;;;124.37;116.20;;;5.50;99.90;;;;;;5061939;28;20272;-80
2021/12/08 05:47:46;;;;;;;121.73;114.80;;;5.50;99.90;;;;;;5067737;28;20181;-80
2021/12/08 05:50:17;;;;;;;121.60;114.77;;;5.50;99.90;;;;;;5062744;28;20227;-79
2021/12/08 05:52:44;;;;;;;115.97;109.40;;;5.50;99.90;;;;;;5062956;28;20200;-81
2021/12/08 05:55:10;;;;;;;116.47;109.90;;;5.50;99.90;;;;;;5077750;28;20187;-79
2021/12/08 05:57:40;;;;;;;114.60;108.07;;;5.40;99.90;;;;;;5044834;28;20341;-80
2021/12/08 06:00:13;;;;;;;113.50;106.90;;;5.40;99.90;;;;;;5077843;28;20217;-79
2021/12/08 06:02:44;;;;;;;117.90;110.80;;;5.40;99.90;;;;;;5060982;28;20190;-79
2021/12/08 06:05:11;;;;;;;113.80;107.17;;;5.40;99.90;;;;;;5062701;28;20235;-81
2021/12/08 06:07:38;;;;;;;113.00;106.57;;;5.40;99.90;;;;;;5066163;28;20229;-80
2021/12/08 06:10:08;;;;;;;111.37;105.13;;;5.40;99.90;;;;;;5061353;28;20277;-81
2021/12/08 06:12:34;;;;;;;111.60;105.40;;;5.40;99.90;;;;;;5064994;28;20276;-80
2021/12/08 06:15:00;;;;;;;109.37;103.30;;;5.40;99.90;;;;;;5050007;28;20811;-79
2021/12/08 06:17:29;;;;;;;114.00;107.20;;;5.30;99.90;;;;;;5074784;28;20202;-80
2021/12/08 06:19:55;;;;;;;111.57;104.90;;;5.30;99.90;;;;;;5080952;28;20198;-81
2021/12/08 06:22:24;;;;;;;110.07;104.07;;;5.30;99.90;;;;;;5083266;28;20220;-80
2021/12/08 06:24:50;;;;;;;108.47;101.90;;;5.30;99.90;;;;;;5061331;28;20242;-81
2021/12/08 06:27:16;;;;;;;107.17;101.47;;;5.30;99.90;;;;;;5063151;28;20608;-79
2021/12/08 06:29:44;;;;;;;109.97;103.97;;;5.30;99.90;;;;;;5051106;28;20280;-79
2021/12/08 06:32:11;;;;;;;109.23;102.63;;;5.30;99.90;;;;;;5062494;28;20209;-78
2021/12/08 06:34:41;;;;;;;104.53;98.23;;;5.40;99.90;;;;;;5065942;28;20898;-80
2021/12/08 06:37:10;;;;;;;100.43;94.80;;;5.40;99.90;;;;;;5084312;28;20293;-80
2021/12/08 06:39:48;;;;;;;103.43;97.53;;;5.50;99.90;;;;;;5061656;28;20197;-79
2021/12/08 06:42:18;;;;;;;104.50;98.47;;;5.50;99.90;;;;;;5049969;28;20190;-80
2021/12/08 06:44:49;;;;;;;99.60;94.10;;;5.50;99.90;;;;;;5081771;28;20181;-81
2021/12/08 06:47:19;;;;;;;99.10;93.67;;;5.40;99.90;;;;;;5077837;28;20224;-81
2021/12/08 06:49:46;;;;;;;98.20;92.20;;;5.40;99.90;;;;;;5065311;28;20309;-81
2021/12/08 06:52:33;;;;;;;97.10;91.47;;;5.50;99.90;;;;;;5049278;28;20214;-80
2021/12/08 06:55:08;;;;;;;98.70;93.10;;;5.40;99.90;;;;;;5082869;28;20194;-81
2021/12/08 06:57:46;;;;;;;92.47;87.37;;;5.40;99.90;;;;;;5061486;28;20225;-80
2021/12/08 07:00:23;;;;;;;95.30;89.10;;;5.50;99.90;;;;;;5060401;28;20189;-80
2021/12/08 07:03:17;;;;;;;97.37;91.87;;;5.40;99.90;;;;;;5066715;28;20250;-81
2021/12/08 07:06:05;;;;;;;93.83;88.83;;;5.40;99.90;;;;;;5062971;28;20240;-79
2021/12/08 07:08:33;;;;;;;95.90;89.93;;;5.40;99.90;;;;;;5061131;28;20919;-80
2021/12/08 07:10:59;;;;;;;95.90;90.60;;;5.30;99.90;;;;;;5067140;28;20281;-81
2021/12/08 07:13:28;;;;;;;93.37;88.10;;;5.30;99.90;;;;;;5034418;28;20200;-79
2021/12/08 07:15:59;;;;;;;87.20;82.47;;;5.30;99.90;;;;;;5049827;28;20274;-81
2021/12/08 07:18:40;;;;;;;91.87;87.13;;;5.30;99.90;;;;;;5061845;28;20178;-80
2021/12/08 07:21:10;;;;;;;91.57;86.40;;;5.30;99.90;;;;;;5064553;28;20556;-79
2021/12/08 07:23:43;;;;;;;89.93;84.93;;;5.30;99.90;;;;;;5061697;28;20246;-81
2021/12/08 07:26:20;;;;;;;92.97;87.57;;;5.30;99.90;;;;;;5061372;28;20232;-82
2021/12/08 07:28:47;;;;;;;90.20;85.17;;;5.30;99.90;;;;;;5061092;28;20235;-80
2021/12/08 07:31:20;;;;;;;90.93;85.10;;;5.30;99.90;;;;;;5058239;28;20196;-80
2021/12/08 07:33:47;;;;;;;89.03;84.07;;;5.20;99.90;;;;;;5058260;28;20217;-79
2021/12/08 07:36:16;;;;;;;89.23;84.03;;;5.20;99.90;;;;;;5033014;28;20236;-80
2021/12/08 07:38:44;;;;;;;87.60;82.67;;;5.20;99.90;;;;;;5058176;28;20182;-80
2021/12/08 07:41:28;;;;;;;88.77;83.47;;;5.20;99.90;;;;;;5065148;28;20246;-80
2021/12/08 07:43:55;;;;;;;87.00;81.80;;;5.30;99.90;;;;;;5059801;28;20189;-81
2021/12/08 07:46:29;;;;;;;86.10;81.20;;;5.40;99.90;;;;;;5059321;28;20205;-80
2021/12/08 07:49:05;;;;;;;87.43;81.93;;;5.40;99.90;;;;;;5073208;28;20206;-80
2021/12/08 07:51:36;;;;;;;88.47;83.10;;;5.30;99.90;;;;;;5080874;28;20192;-81
2021/12/08 07:54:08;;;;;;;83.60;78.80;;;5.30;99.90;;;;;;5064063;28;20178;-80
2021/12/08 07:56:37;;;;;;;84.57;79.33;;;5.30;99.90;;;;;;5062781;28;20190;-81
2021/12/08 07:59:05;;;;;;;81.17;76.23;;;5.30;99.90;;;;;;5066070;28;20316;-80
2021/12/08 08:01:37;;;;;;;83.20;77.90;;;5.30;99.90;;;;;;5061268;28;20185;-79
2021/12/08 08:04:06;;;;;;;84.13;78.83;;;5.30;99.90;;;;;;5061651;28;20202;-81
2021/12/08 08:06:40;;;;;;;82.57;77.70;;;5.30;99.90;;;;;;5061532;28;20245;-81
2021/12/08 08:09:10;;;;;;;83.90;78.87;;;5.30;99.90;;;;;;5049288;28;20193;-79
2021/12/08 08:11:42;;;;;;;81.23;76.57;;;5.50;99.90;;;;;;5065424;28;20190;-81
2021/12/08 08:14:10;;;;;;;79.50;74.37;;;5.80;99.90;;;;;;5059096;28;20670;-80
2021/12/08 08:16:38;;;;;;;73.77;69.63;;;6.00;99.90;;;;;;5075784;28;20185;-80
2021/12/08 08:19:12;;;;;;;75.70;71.17;;;6.10;99.90;;;;;;5058916;28;20206;-80
2021/12/08 08:21:49;;;;;;;73.77;69.57;;;6.10;99.90;;;;;;5060997;28;20181;-80
2021/12/08 08:24:18;;;;;;;71.67;67.17;;;6.10;99.90;;;;;;5060206;28;20657;-80
2021/12/08 08:26:46;;;;;;;69.03;64.60;;;6.10;99.90;;;;;;5065577;28;20214;-80
2021/12/08 08:29:12;;;;;;;70.40;65.83;;;6.00;99.90;;;;;;5060335;28;20182;-80
2021/12/08 08:31:47;;;;;;;67.87;63.87;;;6.00;99.90;;;;;;5031604;28;20196;-82
2021/12/08 08:34:12;;;;;;;67.40;63.50;;;5.90;99.90;;;;;;5068157;28;20662;-80
2021/12/08 08:36:43;;;;;;;66.30;62.30;;;5.90;99.90;;;;;;5068756;28;20576;-80
2021/12/08 08:39:17;;;;;;;68.73;64.67;;;5.90;99.90;;;;;;5068372;28;20228;-80
2021/12/08 08:42:01;;;;;;;66.90;62.30;;;5.90;99.90;;;;;;5068567;28;20546;-79
2021/12/08 08:44:29;;;;;;;67.50;63.20;;;6.00;99.90;;;;;;5068688;28;20316;-81
2021/12/08 08:47:00;;;;;;;67.27;63.30;;;6.00;99.90;;;;;;5064814;28;20213;-80
2021/12/08 08:49:30;;;;;;;64.03;60.30;;;6.10;99.90;;;;;;5064880;28;20206;-80
2021/12/08 08:52:05;;;;;;;63.60;60.10;;;6.10;99.90;;;;;;5064381;28;20183;-80
2021/12/08 08:54:35;;;;;;;61.70;58.13;;;6.00;99.90;;;;;;5062593;28;20182;-81
2021/12/08 08:57:19;;;;;;;61.10;57.50;;;6.00;99.90;;;;;;5068262;28;20225;-80
2021/12/08 08:59:50;;;;;;;61.10;57.37;;;6.00;99.90;;;;;;5064142;28;20216;-80
2021/12/08 09:02:25;;;;;;;55.83;52.27;;;6.00;99.90;;;;;;5063576;28;20239;-81
2021/12/08 09:04:58;;;;;;;52.87;49.93;;;6.00;99.90;;;;;;5062352;28;20198;-81
2021/12/08 09:07:29;;;;;;;53.00;49.80;;;6.00;99.90;;;;;;5064880;28;20202;-81
2021/12/08 09:09:58;;;;;;;52.00;48.83;;;6.00;99.90;;;;;;5061833;28;20185;-79
2021/12/08 09:12:35;;;;;;;50.67;47.73;;;6.00;99.90;;;;;;5060738;28;20238;-80
2021/12/08 09:15:16;;;;;;;48.37;45.63;;;6.10;99.90;;;;;;5062249;28;20188;-80
2021/12/08 09:17:48;;;;;;;45.93;43.10;;;6.10;99.90;;;;;;5063096;28;20193;-81
2021/12/08 09:20:26;;;;;;;44.07;41.60;;;6.20;99.90;;;;;;5062116;28;20655;-81
2021/12/08 09:22:58;;;;;;;43.00;40.37;;;6.20;99.90;;;;;;5063088;28;20170;-81
2021/12/08 09:25:47;;;;;;;41.37;38.60;;;6.30;99.90;;;;;;5065103;28;20190;-80
2021/12/08 09:28:26;;;;;;;39.73;37.20;;;6.50;99.90;;;;;;5061380;28;20248;-80
2021/12/08 09:31:07;;;;;;;39.07;36.70;;;6.50;99.90;;;;;;5067224;28;20203;-79
2021/12/08 09:33:43;;;;;;;37.40;35.20;;;6.60;99.90;;;;;;5060674;28;20182;-80
2021/12/08 09:36:18;;;;;;;39.10;36.07;;;6.60;99.90;;;;;;5061963;28;20212;-80
2021/12/08 09:38:48;;;;;;;33.53;31.60;;;6.60;99.90;;;;;;5060955;28;20182;-80
2021/12/08 09:41:39;;;;;;;34.87;32.83;;;6.60;99.90;;;;;;5061931;28;20179;-80
2021/12/08 09:44:42;;;;;;;35.03;33.00;;;6.70;99.90;;;;;;5068916;28;20802;-80
2021/12/08 09:47:08;;;;;;;35.60;33.23;;;6.70;99.90;;;;;;5061544;28;20201;-81
2021/12/08 09:49:35;;;;;;;34.43;32.37;;;6.70;99.90;;;;;;5064955;28;20225;-80
2021/12/08 09:52:08;;;;;;;32.67;30.60;;;6.70;99.90;;;;;;5034339;28;20243;-81
2021/12/08 09:54:37;;;;;;;32.03;30.00;;;6.70;99.90;;;;;;5066665;28;20277;-80
2021/12/08 09:57:07;;;;;;;31.43;29.50;;;6.70;99.90;;;;;;5044673;28;20236;-81
2021/12/08 09:59:34;;;;;;;30.53;28.37;;;6.70;99.90;;;;;;5066636;28;20205;-80
2021/12/08 10:02:04;;;;;;;30.37;28.47;;;6.70;99.90;;;;;;5051651;28;20698;-81
2021/12/08 10:04:30;;;;;;;31.03;29.00;;;6.70;99.90;;;;;;5044349;28;20201;-80
2021/12/08 10:06:59;;;;;;;30.10;27.97;;;6.80;99.90;;;;;;5061726;28;20587;-82
2021/12/08 10:09:25;;;;;;;29.97;27.80;;;6.80;99.90;;;;;;5068746;28;20658;-81
2021/12/08 10:11:54;;;;;;;28.83;27.03;;;6.70;99.90;;;;;;5051780;28;20209;-82
2021/12/08 10:14:21;;;;;;;27.53;25.77;;;6.70;99.90;;;;;;5066213;28;20251;-81
2021/12/08 10:16:51;;;;;;;29.57;27.50;;;6.70;99.90;;;;;;5066210;28;20288;-81
2021/12/08 10:19:17;;;;;;;30.20;28.50;;;6.70;99.90;;;;;;5062536;28;20213;-80
2021/12/08 10:21:44;;;;;;;28.00;26.13;;;6.70;99.90;;;;;;5034321;28;20196;-81
2021/12/08 10:24:19;;;;;;;27.63;25.60;;;6.70;99.90;;;;;;5062178;28;20196;-80
2021/12/08 10:26:48;;;;;;;24.07;22.17;;;6.70;99.90;;;;;;5060699;28;20201;-80
2021/12/08 10:29:14;;;;;;;25.47;23.50;;;6.60;99.90;;;;;;5050457;28;20656;-81
2021/12/08 10:31:45;;;;;;;25.93;23.87;;;6.70;99.90;;;;;;5061889;28;20212;-80
2021/12/08 10:36:48;;;;;;;27.23;24.93;;;6.70;99.90;;;;;;5060449;28;20217;-80
2021/12/08 10:39:35;;;;;;;25.57;23.93;;;6.80;99.90;;;;;;5060714;28;20264;-81
2021/12/08 10:42:05;;;;;;;27.70;25.03;;;6.80;99.90;;;;;;5062250;28;20185;-80
2021/12/08 10:44:46;;;;;;;27.83;26.03;;;6.80;99.90;;;;;;5065986;28;20186;-81
2021/12/08 10:47:19;;;;;;;29.67;27.23;;;6.90;99.90;;;;;;5080233;28;20217;-81
2021/12/08 10:55:00;;;;;;;27.30;25.67;;;7.20;99.90;;;;;;5065402;28;20208;-79
2021/12/08 10:57:37;;;;;;;28.67;26.67;;;7.20;99.90;;;;;;5060901;28;20236;-80
2021/12/08 11:00:04;;;;;;;25.83;24.03;;;7.10;99.90;;;;;;5064920;28;20243;-81
2021/12/08 11:02:46;;;;;;;25.73;24.03;;;7.00;99.90;;;;;;5074729;28;20198;-80
2021/12/08 11:05:24;;;;;;;25.40;23.63;;;6.90;99.90;;;;;;5082191;28;20566;-81
2021/12/08 11:08:06;;;;;;;24.60;22.90;;;6.90;99.90;;;;;;5058617;28;20247;-79
2021/12/08 11:10:34;;;;;;;25.10;23.17;;;6.90;99.90;;;;;;5049337;28;20211;-79
2021/12/08 11:13:00;;;;;;;24.10;22.53;;;7.10;99.90;;;;;;5065589;28;20681;-79
2021/12/08 11:15:28;;;;;;;22.00;20.50;;;7.10;99.90;;;;;;5062895;28;20273;-80
2021/12/08 11:18:30;;;;;;;21.63;20.03;;;7.20;99.90;;;;;;5033592;28;20285;-81
2021/12/08 11:20:59;;;;;;;22.87;21.30;;;7.10;99.90;;;;;;4998994;28;20290;-79
2021/12/08 11:23:39;;;;;;;22.00;20.33;;;7.10;99.90;;;;;;5046518;28;20210;-79
2021/12/08 11:26:29;;;;;;;23.07;21.47;;;7.20;99.90;;;;;;5060644;28;20220;-80
2021/12/08 11:29:05;;;;;;;24.33;22.30;;;7.30;99.90;;;;;;5063931;28;20180;-81
2021/12/08 11:31:41;;;;;;;26.50;24.47;;;7.30;99.90;;;;;;5061555;28;20268;-81
2021/12/08 11:34:16;;;;;;;27.33;25.17;;;7.20;99.90;;;;;;5060779;28;20197;-81
2021/12/08 11:36:42;;;;;;;27.27;25.07;;;7.10;99.90;;;;;;5060425;28;20207;-82
2021/12/08 11:39:31;;;;;;;27.20;25.10;;;7.00;99.90;;;;;;5061494;28;20181;-80
2021/12/08 11:42:02;;;;;;;27.97;25.87;;;7.10;99.90;;;;;;5054055;28;20537;-80
2021/12/08 11:44:30;;;;;;;27.83;25.60;;;7.20;99.90;;;;;;5059639;28;20191;-81
2021/12/08 11:47:12;;;;;;;27.77;25.57;;;7.30;99.90;;;;;;5058583;28;20658;-81
2021/12/08 11:49:47;;;;;;;28.73;26.80;;;7.40;99.90;;;;;;5064197;28;20255;-80
2021/12/08 11:52:19;;;;;;;29.67;27.03;;;7.50;99.90;;;;;;5080132;28;20181;-81
2021/12/08 11:55:00;;;;;;;28.23;26.07;;;7.50;99.90;;;;;;5061264;28;20178;-81
2021/12/08 11:57:36;;;;;;;28.87;26.83;;;7.50;99.90;;;;;;5060407;28;20213;-81
2021/12/08 12:00:15;;;;;;;29.83;27.83;;;7.50;99.90;;;;;;5064452;28;20201;-81
2021/12/08 12:03:01;;;;;;;29.70;27.77;;;7.50;99.90;;;;;;5060395;28;20181;-81
2021/12/08 12:05:34;;;;;;;28.37;25.93;;;7.50;99.90;;;;;;5058840;28;20225;-82
2021/12/08 12:08:03;;;;;;;28.53;26.37;;;7.40;99.90;;;;;;5061890;28;20586;-80
2021/12/08 12:10:32;;;;;;;28.03;25.60;;;7.40;99.90;;;;;;5052524;28;20246;-81
2021/12/08 12:12:59;;;;;;;28.00;26.00;;;7.40;99.90;;;;;;5063766;28;20642;-81
2021/12/08 12:15:25;;;;;;;27.87;25.53;;;7.40;99.90;;;;;;5062734;28;20537;-81
2021/12/08 12:17:52;;;;;;;26.83;24.50;;;7.40;99.90;;;;;;5053274;28;20198;-81
2021/12/08 12:20:31;;;;;;;25.50;23.50;;;7.30;99.90;;;;;;5053440;28;20240;-81
2021/12/08 12:23:15;;;;;;;26.17;24.30;;;7.30;99.90;;;;;;5062436;28;20181;-81
2021/12/08 12:26:06;;;;;;;26.60;24.27;;;7.30;99.90;;;;;;5086196;28;20227;-80
2021/12/08 12:29:06;;;;;;;28.20;25.80;;;7.30;99.90;;;;;;5062517;28;20293;-81
2021/12/08 12:31:54;;;;;;;28.20;25.97;;;7.30;99.90;;;;;;5069848;28;20304;-80
2021/12/08 12:34:35;;;;;;;27.03;25.27;;;7.30;99.90;;;;;;5064847;28;20201;-81
2021/12/08 12:37:26;;;;;;;27.83;25.77;;;7.20;99.90;;;;;;5064302;28;20213;-81
2021/12/08 12:39:56;;;;;;;27.47;25.10;;;7.20;99.90;;;;;;5055150;28;20198;-80
2021/12/08 12:42:24;;;;;;;26.97;24.57;;;7.20;99.90;;;;;;5066707;28;20265;-81
2021/12/08 12:45:01;;;;;;;25.57;23.70;;;7.10;99.90;;;;;;5062221;28;20190;-82
2021/12/08 12:47:29;;;;;;;26.30;24.30;;;7.20;99.90;;;;;;5068910;28;20307;-81
2021/12/08 12:50:03;;;;;;;24.63;22.60;;;7.10;99.90;;;;;;5064623;28;20559;-81
2021/12/08 12:53:00;;;;;;;25.23;23.10;;;7.20;99.90;;;;;;5067853;28;20267;-82
2021/12/08 12:55:32;;;;;;;23.20;21.60;;;7.20;99.90;;;;;;5053316;28;20240;-80
2021/12/08 12:58:03;;;;;;;22.93;20.77;;;7.20;99.90;;;;;;5068298;28;20220;-80
2021/12/08 13:00:34;;;;;;;24.13;21.93;;;7.20;99.90;;;;;;5064041;28;20185;-80
2021/12/08 13:03:01;;;;;;;23.17;20.90;;;7.20;99.90;;;;;;5063122;28;20244;-80
2021/12/08 13:05:46;;;;;;;21.30;19.13;;;7.20;99.90;;;;;;5051828;28;20206;-79
2021/12/08 13:08:39;;;;;;;20.60;18.57;;;7.30;99.90;;;;;;5065132;28;20185;-82
2021/12/08 13:11:33;;;;;;;20.97;19.13;;;7.20;99.90;;;;;;5063524;28;20202;-81
2021/12/08 13:13:59;;;;;;;27.47;22.53;;;7.30;99.90;;;;;;5069336;28;20178;-80
2021/12/08 13:16:33;;;;;;;25.20;22.60;;;7.20;99.90;;;;;;5060995;28;20208;-81
2021/12/08 13:19:05;;;;;;;24.13;21.73;;;7.20;99.90;;;;;;5068222;28;20201;-82
2021/12/08 13:21:38;;;;;;;25.57;23.10;;;7.30;99.90;;;;;;5069220;28;20683;-81
2021/12/08 13:24:04;;;;;;;24.97;22.57;;;7.30;99.90;;;;;;5067985;28;20190;-81
2021/12/08 13:26:47;;;;;;;24.23;21.93;;;7.30;99.90;;;;;;5067167;28;20218;-81
2021/12/08 13:29:22;;;;;;;25.13;23.00;;;7.30;99.90;;;;;;5067759;28;20563;-80
2021/12/08 13:32:12;;;;;;;26.43;23.00;;;7.20;99.90;;;;;;5052659;28;20193;-80
2021/12/08 13:34:41;;;;;;;24.93;22.97;;;7.30;99.90;;;;;;5063346;28;20269;-81
2021/12/08 13:37:23;;;;;;;25.87;23.43;;;7.30;99.90;;;;;;5060111;28;20209;-81
2021/12/08 13:39:51;;;;;;;22.90;20.87;;;7.30;99.90;;;;;;5061655;28;20623;-80
2021/12/08 13:42:29;;;;;;;27.17;22.30;;;7.30;99.90;;;;;;5062465;28;20182;-80
2021/12/08 13:44:58;;;;;;;23.17;20.67;;;7.30;99.90;;;;;;5062799;28;20286;-81
2021/12/08 13:47:39;;;;;;;24.03;21.77;;;7.20;99.90;;;;;;5068363;28;20208;-80
2021/12/08 13:50:15;;;;;;;26.30;23.17;;;7.20;99.90;;;;;;5061442;28;20727;-81